createdAt,value
2023-02-13T00:01:08.860Z,3.90
2023-02-13T00:03:37.528Z,3.90
2023-02-13T00:06:06.203Z,3.90
2023-02-13T00:08:34.817Z,3.80
2023-02-13T00:11:04.698Z,3.80
2023-02-13T00:13:34.248Z,3.70
2023-02-13T00:16:04.375Z,3.70
2023-02-13T00:18:36.422Z,3.70
2023-02-13T00:21:07.712Z,3.60
2023-02-13T00:23:37.633Z,3.60
2023-02-13T00:26:10.169Z,3.60
2023-02-13T00:28:38.585Z,3.50
2023-02-13T00:31:09.123Z,3.50
2023-02-13T00:33:37.952Z,3.50
2023-02-13T00:36:08.409Z,3.40
2023-02-13T00:38:38.050Z,3.40
2023-02-13T00:41:08.674Z,3.30
2023-02-13T00:43:37.764Z,3.30
2023-02-13T00:46:07.116Z,3.20
2023-02-13T00:48:35.957Z,3.20
2023-02-13T00:51:05.078Z,3.20
2023-02-13T00:53:33.800Z,3.20
2023-02-13T00:56:02.780Z,3.10
2023-02-13T00:58:32.791Z,3.10
2023-02-13T01:01:01.477Z,3.10
2023-02-13T01:03:30.418Z,3.00
2023-02-13T01:05:58.921Z,3.10
2023-02-13T01:08:28.397Z,3.00
2023-02-13T01:10:57.646Z,3.00
2023-02-13T01:13:26.311Z,3.00
2023-02-13T01:15:55.988Z,2.90
2023-02-13T01:18:24.272Z,2.90
2023-02-13T01:21:00.815Z,2.90
2023-02-13T01:23:32.183Z,2.90
2023-02-13T01:26:00.660Z,2.90
2023-02-13T01:28:29.102Z,2.90
2023-02-13T01:31:00.195Z,2.90
2023-02-13T01:33:30.495Z,2.90
2023-02-13T01:36:00.394Z,2.90
2023-02-13T01:38:28.734Z,2.80
2023-02-13T01:40:57.344Z,2.80
2023-02-13T01:43:26.293Z,2.80
2023-02-13T01:45:58.319Z,2.80
2023-02-13T01:48:30.321Z,2.80
2023-02-13T01:51:03.321Z,2.80
2023-02-13T01:53:34.710Z,2.80
2023-02-13T01:56:06.698Z,2.80
2023-02-13T01:58:38.552Z,2.70
2023-02-13T02:01:10.186Z,2.70
2023-02-13T02:03:43.755Z,2.70
2023-02-13T02:06:16.045Z,2.70
2023-02-13T02:08:44.663Z,2.70
2023-02-13T02:11:18.821Z,2.70
2023-02-13T02:13:47.566Z,2.70
2023-02-13T02:16:17.445Z,2.70
2023-02-13T02:18:45.845Z,2.70
2023-02-13T02:21:47.207Z,2.70
2023-02-13T02:24:40.165Z,2.70
2023-02-13T02:27:50.812Z,2.70
2023-02-13T02:30:48.475Z,2.70
2023-02-13T02:33:37.925Z,2.70
2023-02-13T02:36:21.029Z,2.60
2023-02-13T02:39:09.785Z,2.60
2023-02-13T02:41:53.627Z,2.60
2023-02-13T02:44:35.211Z,2.60
2023-02-13T02:47:38.972Z,2.60
2023-02-13T02:50:36.025Z,2.60
2023-02-13T02:53:18.181Z,2.60
2023-02-13T02:55:54.023Z,2.60
2023-02-13T02:58:44.373Z,2.60
2023-02-13T03:01:46.997Z,2.50
2023-02-13T03:04:37.958Z,2.50
2023-02-13T03:07:10.596Z,2.40
2023-02-13T03:09:59.024Z,2.60
2023-02-13T03:12:54.543Z,2.70
2023-02-13T03:15:25.571Z,2.50
2023-02-13T03:18:11.350Z,2.50
2023-02-13T03:21:04.826Z,2.60
2023-02-13T03:23:46.994Z,2.50
2023-02-13T03:26:46.541Z,2.50
2023-02-13T03:29:42.884Z,2.90
2023-02-13T03:32:18.600Z,2.60
2023-02-13T03:35:07.068Z,2.70
2023-02-13T03:37:56.041Z,2.60
2023-02-13T03:45:51.241Z,2.50
2023-02-13T03:48:40.922Z,2.70
2023-02-13T03:51:11.512Z,2.40
2023-02-13T03:53:41.508Z,2.40
2023-02-13T03:56:31.577Z,2.40
2023-02-13T03:59:17.282Z,2.40
2023-02-13T04:09:20.186Z,2.60
2023-02-13T04:11:57.029Z,2.60
2023-02-13T04:14:30.129Z,2.60
2023-02-13T04:17:04.557Z,2.50
2023-02-13T04:19:33.791Z,2.50
2023-02-13T04:22:03.517Z,2.70
2023-02-13T04:24:31.829Z,2.70
2023-02-13T04:27:01.691Z,2.60
2023-02-13T04:29:29.856Z,2.60
2023-02-13T04:31:58.105Z,2.60
2023-02-13T04:34:26.626Z,2.60
2023-02-13T04:39:24.175Z,2.60
2023-02-13T04:41:52.411Z,2.60
2023-02-13T04:44:22.089Z,2.60
2023-02-13T04:46:50.298Z,2.60
2023-02-13T04:49:18.479Z,2.60
2023-02-13T04:51:46.674Z,2.60
2023-02-13T04:54:15.110Z,2.60
2023-02-13T04:56:43.331Z,2.60
2023-02-13T04:59:11.833Z,2.60
2023-02-13T05:01:41.607Z,2.60
2023-02-13T05:04:11.487Z,2.60
2023-02-13T05:06:39.867Z,2.60
2023-02-13T05:09:08.056Z,2.60
2023-02-13T05:11:36.171Z,2.60
2023-02-13T05:14:04.495Z,2.60
2023-02-13T05:16:32.768Z,2.60
2023-02-13T05:19:02.481Z,2.60
2023-02-13T05:21:48.117Z,2.50
2023-02-13T05:24:17.224Z,2.50
2023-02-13T05:26:46.495Z,2.40
2023-02-13T05:29:20.593Z,2.40
2023-02-13T05:31:49.555Z,2.40
2023-02-13T05:34:19.500Z,2.40
2023-02-13T05:36:47.735Z,2.40
2023-02-13T05:39:16.414Z,2.40
2023-02-13T05:41:45.198Z,2.40
2023-02-13T05:44:13.931Z,2.40
2023-02-13T05:46:44.951Z,2.40
2023-02-13T05:49:15.064Z,2.40
2023-02-13T05:51:46.457Z,2.30
2023-02-13T05:54:14.782Z,2.30
2023-02-13T05:56:42.987Z,2.30
2023-02-13T05:59:11.332Z,2.30
2023-02-13T06:01:39.804Z,2.30
2023-02-13T06:04:08.210Z,2.30
2023-02-13T06:06:36.511Z,2.30
2023-02-13T06:09:06.603Z,2.30
2023-02-13T06:11:34.799Z,2.30
2023-02-13T06:14:03.037Z,2.30
2023-02-13T06:16:32.406Z,2.30
2023-02-13T06:19:00.632Z,2.30
2023-02-13T06:21:28.962Z,2.30
2023-02-13T06:23:57.715Z,2.30
2023-02-13T06:26:27.425Z,2.30
2023-02-13T06:28:55.606Z,2.20
2023-02-13T06:31:24.007Z,2.10
2023-02-13T06:33:52.401Z,2.10
2023-02-13T06:36:20.835Z,2.00
2023-02-13T06:38:49.138Z,2.00
2023-02-13T06:41:17.394Z,1.90
2023-02-13T06:43:46.934Z,2.00
2023-02-13T06:46:15.614Z,1.90
2023-02-13T06:48:43.893Z,2.00
2023-02-13T06:51:12.139Z,2.00
2023-02-13T06:53:40.587Z,2.00
2023-02-13T06:56:08.935Z,2.10
2023-02-13T06:58:38.801Z,2.00
2023-02-13T07:01:08.512Z,2.00
2023-02-13T07:03:36.852Z,1.90
2023-02-13T07:06:05.498Z,1.90
2023-02-13T07:08:34.069Z,1.90
2023-02-13T07:11:02.305Z,1.90
2023-02-13T07:13:30.779Z,1.90
2023-02-13T07:16:02.516Z,2.00
2023-02-13T07:18:32.051Z,2.00
2023-02-13T07:21:00.268Z,2.00
2023-02-13T07:23:28.462Z,2.00
2023-02-13T07:25:56.740Z,2.00
2023-02-13T07:28:24.992Z,2.10
2023-02-13T07:30:56.445Z,2.20
2023-02-13T07:33:26.536Z,2.30
2023-02-13T07:35:56.162Z,2.40
2023-02-13T07:38:24.424Z,2.60
2023-02-13T07:40:52.695Z,2.80
2023-02-13T07:43:21.234Z,2.90
2023-02-13T07:45:49.497Z,3.10
2023-02-13T07:48:17.723Z,3.30
2023-02-13T07:50:45.877Z,3.50
2023-02-13T07:53:15.605Z,3.60
2023-02-13T07:55:43.852Z,3.90
2023-02-13T07:58:12.014Z,4.10
2023-02-13T08:00:40.329Z,4.40
2023-02-13T08:03:08.621Z,4.70
2023-02-13T08:05:37.196Z,5.00
2023-02-13T08:08:05.826Z,5.40
2023-02-13T08:10:52.571Z,5.70
2023-02-13T08:13:21.069Z,5.90
2023-02-13T08:15:49.490Z,6.30
2023-02-13T08:18:19.912Z,6.70
2023-02-13T08:20:48.622Z,7.20
2023-02-13T08:23:16.904Z,7.50
2023-02-13T08:25:47.886Z,7.80
2023-02-13T08:28:16.151Z,8.10
2023-02-13T08:30:44.544Z,8.50
2023-02-13T08:33:13.080Z,8.90
2023-02-13T08:35:41.248Z,9.20
2023-02-13T08:38:10.460Z,9.30
2023-02-13T08:40:38.701Z,9.70
2023-02-13T08:43:08.546Z,10.10
2023-02-13T08:45:37.587Z,10.30
2023-02-13T08:48:06.632Z,10.50
2023-02-13T08:50:37.012Z,10.90
2023-02-13T08:53:05.838Z,11.70
2023-02-13T08:55:34.107Z,11.90
2023-02-13T08:58:03.038Z,12.40
2023-02-13T09:00:35.594Z,12.80
2023-02-13T09:03:10.032Z,13.30
2023-02-13T09:05:41.051Z,13.80
2023-02-13T09:08:11.705Z,14.20
2023-02-13T09:10:41.419Z,14.40
2023-02-13T09:13:09.747Z,14.90
2023-02-13T09:15:41.676Z,15.30
2023-02-13T09:18:09.888Z,15.60
2023-02-13T09:20:38.088Z,15.90
2023-02-13T09:23:06.296Z,16.40
2023-02-13T09:25:34.530Z,16.70
2023-02-13T09:28:03.042Z,17.10
2023-02-13T09:30:31.292Z,17.30
2023-02-13T09:33:00.974Z,18.00
2023-02-13T09:35:29.593Z,18.30
2023-02-13T09:37:57.862Z,18.50
2023-02-13T09:40:32.190Z,19.20
2023-02-13T09:43:08.200Z,19.10
2023-02-13T09:45:37.737Z,19.60
2023-02-13T09:48:08.199Z,20.00
2023-02-13T09:50:36.978Z,20.30
2023-02-13T09:53:06.060Z,20.70
2023-02-13T10:29:34.291Z,24.10
2023-02-13T10:32:07.293Z,24.30
2023-02-13T10:34:43.436Z,24.40
2023-02-13T10:37:15.732Z,24.70
2023-02-13T10:39:46.651Z,25.20
2023-02-13T10:42:23.979Z,25.40
2023-02-13T10:45:10.727Z,25.60
2023-02-13T10:48:07.460Z,25.80
2023-02-13T10:50:44.505Z,25.50
2023-02-13T10:53:22.386Z,24.90
2023-02-13T10:56:33.115Z,25.40
2023-02-13T10:59:15.571Z,26.10
2023-02-13T11:01:53.888Z,26.10
2023-02-13T11:04:22.196Z,26.10
2023-02-13T11:06:57.134Z,26.60
2023-02-13T11:09:25.621Z,26.90
2023-02-13T11:11:54.322Z,26.40
2023-02-13T11:14:24.591Z,26.30
2023-02-13T11:16:56.642Z,26.10
2023-02-13T11:19:31.180Z,26.10
2023-02-13T11:22:05.305Z,26.10
2023-02-13T11:24:34.514Z,27.00
2023-02-13T11:27:09.386Z,27.20
2023-02-13T11:29:39.276Z,26.30
2023-02-13T11:32:20.541Z,24.70
2023-02-13T11:34:51.473Z,25.50
2023-02-13T11:37:27.593Z,26.10
2023-02-13T11:39:57.540Z,26.60
2023-02-13T11:42:32.430Z,27.30
2023-02-13T11:45:03.959Z,28.00
2023-02-13T11:47:41.227Z,27.90
2023-02-13T11:50:23.928Z,28.30
2023-02-13T11:52:59.888Z,27.50
2023-02-13T11:55:32.200Z,27.90
2023-02-13T11:58:02.341Z,28.60
2023-02-13T12:00:37.665Z,27.90
2023-02-13T12:03:26.182Z,27.70
2023-02-13T12:06:07.967Z,28.50
2023-02-13T12:08:39.985Z,29.00
2023-02-13T12:11:22.440Z,28.70
2023-02-13T12:13:52.902Z,27.90
2023-02-13T12:16:30.603Z,28.00
2023-02-13T12:19:03.387Z,28.20
2023-02-13T12:21:46.197Z,28.60
2023-02-13T12:24:29.893Z,28.10
2023-02-13T12:27:07.420Z,28.70
2023-02-13T12:30:01.494Z,28.70
2023-02-13T12:32:41.542Z,28.80
2023-02-13T12:35:46.667Z,28.60
2023-02-13T12:38:27.502Z,27.80
2023-02-13T12:41:15.705Z,27.40
2023-02-13T12:44:18.991Z,27.20
2023-02-13T12:46:56.756Z,28.00
2023-02-13T12:49:48.665Z,28.50
2023-02-13T12:52:32.952Z,28.60
2023-02-13T12:55:18.414Z,28.00
2023-02-13T12:57:59.600Z,27.40
2023-02-13T13:00:39.255Z,27.10
2023-02-13T13:03:37.611Z,26.50
2023-02-13T13:06:25.286Z,27.50
2023-02-13T13:09:15.790Z,28.20
2023-02-13T13:11:57.558Z,27.50
2023-02-13T13:14:39.044Z,26.80
2023-02-13T13:17:16.182Z,25.80
2023-02-13T13:19:52.716Z,26.70
2023-02-13T13:22:28.668Z,26.10
2023-02-13T13:25:04.732Z,26.70
2023-02-13T13:27:37.357Z,27.00
2023-02-13T13:30:15.742Z,27.40
2023-02-13T13:32:46.786Z,26.30
2023-02-13T13:35:16.704Z,24.50
2023-02-13T13:38:02.571Z,24.30
2023-02-13T13:40:36.300Z,24.00
2023-02-13T13:43:12.496Z,23.40
2023-02-13T13:45:48.753Z,24.30
2023-02-13T13:48:41.199Z,23.50
2023-02-13T13:51:11.071Z,25.00
2023-02-13T13:54:32.285Z,25.70
2023-02-13T13:57:13.597Z,26.00
2023-02-13T14:00:02.575Z,25.30
2023-02-13T14:02:45.198Z,25.00
2023-02-13T14:05:26.940Z,24.40
2023-02-13T14:11:10.115Z,24.70
2023-02-13T14:13:40.725Z,24.90
2023-02-13T14:18:47.928Z,25.00
2023-02-13T14:23:53.809Z,24.30
2023-02-13T14:26:38.131Z,24.70
2023-02-13T14:29:30.278Z,24.70
2023-02-13T14:32:08.212Z,23.10
2023-02-13T14:34:40.771Z,23.30
2023-02-13T14:37:21.128Z,23.30
2023-02-13T14:40:17.559Z,24.50
2023-02-13T14:42:46.504Z,23.60
2023-02-13T14:45:18.537Z,23.00
2023-02-13T14:47:53.486Z,23.00
2023-02-13T14:50:26.171Z,23.60
2023-02-13T14:52:56.348Z,23.20
2023-02-13T14:55:34.726Z,21.90
2023-02-13T14:58:08.725Z,21.80
2023-02-13T15:00:45.323Z,21.40
2023-02-13T15:03:26.030Z,21.20
2023-02-13T15:08:29.350Z,21.20
2023-02-13T15:13:33.719Z,20.60
2023-02-13T15:18:44.613Z,19.90
2023-02-13T15:23:45.397Z,20.30
2023-02-13T15:26:22.779Z,21.10
2023-02-13T15:29:01.230Z,21.60
2023-02-13T15:31:33.413Z,21.40
2023-02-13T15:34:02.096Z,21.20
2023-02-13T15:36:41.377Z,20.50
2023-02-13T15:39:18.711Z,20.70
2023-02-13T15:41:50.120Z,19.90
2023-02-13T15:44:21.214Z,19.80
2023-02-13T15:46:51.759Z,20.20
2023-02-13T15:49:22.971Z,19.80
2023-02-13T15:52:02.508Z,20.00
2023-02-13T15:54:32.650Z,19.70
2023-02-13T15:57:03.663Z,19.60
2023-02-13T15:59:35.939Z,19.50
2023-02-13T16:02:06.240Z,19.40
2023-02-13T16:04:35.181Z,19.40
2023-02-13T16:07:05.018Z,19.30
2023-02-13T16:09:34.764Z,18.70
2023-02-13T16:12:05.164Z,18.70
2023-02-13T16:14:37.234Z,18.40
2023-02-13T16:17:07.519Z,18.20
2023-02-13T16:19:40.598Z,18.10
2023-02-13T16:22:22.257Z,18.00
2023-02-13T16:24:52.975Z,17.90
2023-02-13T16:47:41.782Z,16.30
2023-02-13T16:50:16.555Z,16.00
2023-02-13T17:10:27.398Z,14.40
2023-02-13T17:12:59.398Z,14.10
2023-02-13T17:15:29.088Z,13.80
2023-02-13T17:17:57.455Z,13.60
2023-02-13T17:20:28.763Z,13.40
2023-02-13T17:22:59.418Z,13.30
2023-02-13T17:25:30.533Z,13.30
2023-02-13T18:02:59.411Z,11.50
2023-02-13T18:12:58.474Z,10.70
2023-02-13T18:15:27.174Z,10.80
2023-02-13T18:22:53.955Z,10.40
2023-02-13T18:27:55.711Z,10.30
2023-02-13T19:00:15.137Z,9.60
2023-02-13T19:02:44.682Z,9.50
2023-02-13T19:05:12.924Z,9.30
2023-02-13T19:07:41.283Z,9.10
2023-02-13T19:10:09.884Z,9.00
2023-02-13T19:12:38.284Z,8.90
2023-02-13T19:15:07.107Z,8.80
2023-02-13T19:17:36.468Z,8.80
2023-02-13T19:20:07.929Z,8.60
2023-02-13T19:22:36.177Z,8.60
2023-02-13T19:25:04.793Z,8.60
2023-02-13T19:27:33.315Z,8.50
2023-02-13T19:30:01.608Z,8.50
2023-02-13T19:32:29.814Z,8.30
2023-02-13T19:34:58.063Z,8.30
2023-02-13T19:37:30.683Z,8.10
2023-02-13T19:40:04.550Z,8.20
2023-02-13T19:42:32.989Z,8.10
2023-02-13T19:45:01.360Z,8.10
2023-02-13T19:47:29.562Z,8.00
2023-02-13T19:49:57.732Z,7.90
2023-02-13T19:57:24.374Z,7.70
2023-02-13T19:59:52.814Z,7.50
2023-02-13T20:02:21.958Z,7.60
2023-02-13T20:04:50.335Z,7.40
2023-02-13T20:07:18.552Z,7.20
2023-02-13T20:09:46.891Z,7.40
2023-02-13T20:12:16.482Z,7.40
2023-02-13T20:14:44.795Z,7.30
2023-02-13T20:17:13.080Z,7.10
2023-02-13T20:19:41.248Z,7.00
2023-02-13T20:22:09.500Z,6.90
2023-02-13T20:32:07.229Z,7.10
2023-02-13T20:37:24.061Z,6.80
2023-02-13T20:39:52.282Z,6.60
2023-02-13T20:42:20.455Z,6.60
2023-02-13T20:57:14.576Z,6.40
2023-02-13T20:59:44.953Z,6.40
2023-02-13T21:02:14.856Z,6.40
2023-02-13T21:04:43.391Z,6.30
2023-02-13T21:07:11.938Z,6.20
2023-02-13T21:09:40.497Z,6.20
2023-02-13T21:12:08.905Z,6.20
2023-02-13T21:14:37.411Z,6.10
2023-02-13T21:17:05.592Z,6.20
2023-02-13T21:19:35.283Z,6.00
2023-02-13T21:22:12.229Z,6.00
2023-02-13T21:24:41.655Z,5.80
2023-02-13T21:27:10.564Z,5.80
2023-02-13T21:29:39.230Z,5.90
2023-02-13T21:42:05.225Z,5.70
2023-02-13T21:44:33.601Z,5.80
2023-02-13T21:47:02.114Z,5.60
2023-02-13T21:49:30.450Z,5.50
2023-02-13T21:52:00.520Z,5.40
2023-02-13T21:54:28.956Z,5.40
2023-02-13T21:56:57.332Z,5.40
2023-02-13T21:59:25.707Z,5.30
2023-02-13T22:01:54.856Z,5.20
2023-02-13T22:04:23.177Z,5.20
2023-02-13T22:06:53.054Z,5.00
2023-02-13T22:09:23.667Z,4.90
2023-02-13T22:11:54.567Z,4.80
2023-02-13T22:14:22.901Z,4.90
2023-02-13T22:16:53.012Z,4.90
2023-02-13T22:19:21.761Z,5.00
2023-02-13T22:21:50.111Z,4.80
2023-02-13T22:24:18.338Z,4.90
2023-02-13T22:26:47.985Z,4.80
2023-02-13T22:29:18.534Z,4.80
2023-02-13T22:31:47.174Z,4.70
2023-02-13T22:34:15.958Z,4.70
2023-02-13T22:36:44.548Z,4.60
2023-02-13T22:39:13.718Z,4.50
2023-02-13T22:41:44.564Z,4.60
2023-02-13T22:44:14.207Z,4.60
2023-02-13T22:46:42.788Z,4.60
2023-02-13T22:49:10.970Z,4.60
2023-02-13T22:51:39.115Z,4.50
2023-02-13T22:54:07.464Z,4.40
2023-02-13T22:56:36.111Z,4.40
2023-02-13T22:59:04.400Z,4.30
2023-02-13T23:01:34.126Z,4.30
2023-02-13T23:04:02.353Z,4.10
2023-02-13T23:06:30.794Z,4.10
2023-02-13T23:08:59.207Z,4.10
2023-02-13T23:11:47.417Z,4.10
2023-02-13T23:14:16.848Z,4.00
2023-02-13T23:17:04.362Z,4.00
2023-02-13T23:19:33.060Z,4.00
2023-02-13T23:22:01.610Z,3.90
2023-02-13T23:24:31.330Z,3.90
2023-02-13T23:26:59.895Z,3.90
2023-02-13T23:29:28.488Z,3.80
2023-02-13T23:31:58.264Z,4.00
2023-02-13T23:34:26.954Z,3.70
2023-02-13T23:36:55.158Z,3.80
2023-02-13T23:39:24.395Z,3.70
2023-02-13T23:41:52.636Z,3.70
2023-02-13T23:44:21.071Z,3.70
2023-02-13T23:46:49.385Z,3.50
2023-02-13T23:49:20.554Z,3.50
2023-02-13T23:51:49.463Z,3.60
2023-02-13T23:54:18.629Z,3.70
2023-02-13T23:56:47.905Z,3.50
2023-02-13T23:59:17.436Z,3.50
